createdAt,value
2023-03-15T00:00:55.361Z,101206.53
2023-03-15T00:03:24.560Z,101189.94
2023-03-15T00:05:52.448Z,101212.47
2023-03-15T00:08:19.336Z,101214.19
2023-03-15T00:10:47.813Z,101218.56
2023-03-15T00:13:15.593Z,101225.59
2023-03-15T00:16:02.985Z,101232.63
2023-03-15T00:18:29.867Z,101217.88
2023-03-15T00:20:56.353Z,101217.97
2023-03-15T00:23:22.873Z,101221.53
2023-03-15T00:25:50.992Z,101226.75
2023-03-15T00:28:17.950Z,101239.84
2023-03-15T00:30:45.945Z,101239.03
2023-03-15T00:33:13.889Z,101236.41
2023-03-15T00:35:42.224Z,101248.63
2023-03-15T00:38:09.162Z,101248.63
2023-03-15T00:40:37.119Z,101246.06
2023-03-15T00:43:03.767Z,101253.94
2023-03-15T00:45:30.405Z,101258.25
2023-03-15T00:47:57.081Z,101261.75
2023-03-15T00:50:23.719Z,101253.94
2023-03-15T00:52:50.498Z,101257.44
2023-03-15T00:55:18.899Z,101267.88
2023-03-15T00:57:46.368Z,101263.53
2023-03-15T01:00:24.541Z,101274.00
2023-03-15T01:02:54.937Z,101274.88
2023-03-15T01:05:21.686Z,101278.34
2023-03-15T01:07:48.973Z,101272.28
2023-03-15T01:10:16.283Z,101288.81
2023-03-15T01:12:42.835Z,101287.09
2023-03-15T01:15:12.226Z,101290.56
2023-03-15T01:17:39.069Z,101287.97
2023-03-15T01:20:06.588Z,101292.34
2023-03-15T01:22:33.161Z,101289.75
2023-03-15T01:24:59.732Z,101299.28
2023-03-15T01:27:26.278Z,101297.56
2023-03-15T01:29:52.880Z,101302.78
2023-03-15T01:32:19.413Z,101301.91
2023-03-15T01:34:46.156Z,101301.91
2023-03-15T01:37:14.585Z,101307.13
2023-03-15T01:39:42.552Z,101311.50
2023-03-15T01:42:10.062Z,101314.09
2023-03-15T01:45:32.278Z,101314.94
2023-03-15T01:47:58.887Z,101328.84
2023-03-15T01:50:25.484Z,101323.63
2023-03-15T01:52:52.031Z,101322.75
2023-03-15T01:55:19.887Z,101326.22
2023-03-15T01:57:57.283Z,101329.69
2023-03-15T02:00:24.333Z,101327.94
2023-03-15T02:02:54.410Z,101339.22
2023-03-15T02:05:24.509Z,101332.25
2023-03-15T02:07:54.544Z,101329.66
2023-03-15T02:10:27.748Z,101337.50
2023-03-15T02:12:55.834Z,101343.56
2023-03-15T02:15:22.367Z,101338.31
2023-03-15T02:17:49.226Z,101340.94
2023-03-15T02:20:27.288Z,101347.00
2023-03-15T02:23:14.763Z,101349.59
2023-03-15T02:25:53.628Z,101346.97
2023-03-15T02:28:20.572Z,101345.19
2023-03-15T02:30:47.650Z,101352.19
2023-03-15T02:33:30.519Z,101353.06
2023-03-15T02:36:08.015Z,101353.06
2023-03-15T02:38:34.532Z,101355.69
2023-03-15T02:41:01.288Z,101367.88
2023-03-15T02:43:30.597Z,101369.63
2023-03-15T02:45:57.197Z,101377.47
2023-03-15T02:48:23.788Z,101382.69
2023-03-15T02:50:50.384Z,101380.94
2023-03-15T02:53:16.962Z,101399.22
2023-03-15T02:55:43.504Z,101404.41
2023-03-15T02:58:10.323Z,101407.03
2023-03-15T03:00:37.081Z,101413.13
2023-03-15T03:03:03.725Z,101418.31
2023-03-15T03:05:30.212Z,101424.44
2023-03-15T03:07:56.876Z,101425.28
2023-03-15T03:10:23.388Z,101425.31
2023-03-15T03:12:53.525Z,101433.13
2023-03-15T03:15:20.723Z,101434.84
2023-03-15T03:17:47.419Z,101427.91
2023-03-15T03:20:15.181Z,101434.88
2023-03-15T03:22:44.795Z,101433.13
2023-03-15T03:25:12.131Z,101440.09
2023-03-15T03:27:40.221Z,101439.22
2023-03-15T03:30:08.844Z,101442.72
2023-03-15T03:32:35.731Z,101438.34
2023-03-15T03:35:02.418Z,101444.44
2023-03-15T03:37:30.931Z,101448.75
2023-03-15T03:39:58.326Z,101447.03
2023-03-15T03:42:25.350Z,101461.81
2023-03-15T03:44:54.023Z,101457.47
2023-03-15T03:47:20.928Z,101466.13
2023-03-15T03:49:47.455Z,101472.19
2023-03-15T03:52:14.105Z,101482.66
2023-03-15T03:54:42.748Z,101480.06
2023-03-15T03:57:10.585Z,101483.53
2023-03-15T03:59:37.139Z,101481.78
2023-03-15T04:02:03.734Z,101493.13
2023-03-15T04:04:30.267Z,101491.34
2023-03-15T04:06:57.013Z,101482.69
2023-03-15T04:09:25.107Z,101489.63
2023-03-15T04:11:51.810Z,101498.31
2023-03-15T04:14:18.444Z,101501.81
2023-03-15T04:16:45.014Z,101508.75
2023-03-15T04:19:12.897Z,101498.31
2023-03-15T04:21:39.496Z,101511.38
2023-03-15T04:24:06.172Z,101511.38
2023-03-15T04:26:34.639Z,101516.56
2023-03-15T04:29:01.300Z,101514.84
2023-03-15T04:31:27.972Z,101519.22
2023-03-15T04:33:55.197Z,101523.53
2023-03-15T04:36:24.471Z,101535.72
2023-03-15T04:38:51.038Z,101547.91
2023-03-15T04:41:18.405Z,101545.28
2023-03-15T04:43:45.137Z,101554.84
2023-03-15T04:46:11.679Z,101552.22
2023-03-15T04:48:38.207Z,101555.66
2023-03-15T04:51:04.883Z,101553.88
2023-03-15T04:53:31.575Z,101558.22
2023-03-15T04:55:58.069Z,101559.97
2023-03-15T04:58:24.608Z,101572.13
2023-03-15T05:00:53.267Z,101579.97
2023-03-15T05:03:19.865Z,101589.53
2023-03-15T05:05:46.467Z,101570.44
2023-03-15T05:08:13.098Z,101580.00
2023-03-15T05:10:39.717Z,101578.25
2023-03-15T05:13:06.412Z,101571.31
2023-03-15T05:15:33.083Z,101578.25
2023-03-15T05:17:59.728Z,101578.25
2023-03-15T05:20:26.318Z,101584.31
2023-03-15T05:22:55.452Z,101590.38
2023-03-15T05:25:22.144Z,101595.59
2023-03-15T05:27:48.809Z,101601.66
2023-03-15T05:30:18.167Z,101608.56
2023-03-15T05:32:44.889Z,101607.72
2023-03-15T05:35:12.706Z,101605.94
2023-03-15T05:37:39.609Z,101610.25
2023-03-15T05:40:10.308Z,101613.69
2023-03-15T05:42:37.018Z,101616.28
2023-03-15T05:45:03.662Z,101619.72
2023-03-15T05:47:30.636Z,101622.31
2023-03-15T05:49:58.027Z,101629.25
2023-03-15T05:52:24.591Z,101633.56
2023-03-15T05:54:51.169Z,101637.03
2023-03-15T05:57:17.709Z,101646.53
2023-03-15T05:59:44.195Z,101653.44
2023-03-15T06:02:10.732Z,101652.56
2023-03-15T06:04:38.107Z,101658.63
2023-03-15T06:07:04.967Z,101658.59
2023-03-15T06:09:31.704Z,101671.59
2023-03-15T06:11:59.095Z,101673.31
2023-03-15T06:14:27.240Z,101678.59
2023-03-15T06:16:53.972Z,101682.88
2023-03-15T06:19:21.354Z,101692.41
2023-03-15T06:21:48.194Z,101686.34
2023-03-15T06:24:14.718Z,101686.34
2023-03-15T06:26:41.380Z,101687.25
2023-03-15T06:29:08.102Z,101690.75
2023-03-15T06:31:34.637Z,101695.13
2023-03-15T06:34:01.632Z,101698.66
2023-03-15T06:36:28.219Z,101709.94
2023-03-15T06:38:54.757Z,101713.44
2023-03-15T06:41:21.511Z,101723.00
2023-03-15T06:43:48.081Z,101724.78
2023-03-15T06:46:14.655Z,101727.44
2023-03-15T06:48:41.504Z,101734.44
2023-03-15T06:51:08.002Z,101738.81
2023-03-15T06:53:34.750Z,101746.69
2023-03-15T06:56:01.359Z,101745.00
2023-03-15T06:58:27.903Z,101741.56
2023-03-15T07:00:54.597Z,101745.09
2023-03-15T07:03:22.399Z,101751.19
2023-03-15T07:05:52.494Z,101753.84
2023-03-15T07:08:19.652Z,101754.78
2023-03-15T07:10:46.729Z,101766.13
2023-03-15T07:13:13.585Z,101764.38
2023-03-15T07:15:40.251Z,101768.75
2023-03-15T07:18:07.100Z,101757.53
2023-03-15T07:20:36.229Z,101760.13
2023-03-15T07:23:03.976Z,101767.13
2023-03-15T07:25:30.548Z,101771.47
2023-03-15T07:27:57.077Z,101772.38
2023-03-15T07:30:23.574Z,101783.72
2023-03-15T07:32:50.233Z,101775.88
2023-03-15T07:35:18.166Z,101776.78
2023-03-15T07:37:45.090Z,101780.28
2023-03-15T07:40:12.888Z,101789.84
2023-03-15T07:42:43.184Z,101797.69
2023-03-15T07:45:10.216Z,101810.75
2023-03-15T07:47:37.928Z,101801.19
2023-03-15T07:50:05.866Z,101803.78
2023-03-15T07:52:32.760Z,101801.19
2023-03-15T07:54:59.297Z,101808.16
2023-03-15T07:57:28.738Z,101802.91
2023-03-15T07:59:56.092Z,101808.16
2023-03-15T08:02:22.707Z,101817.72
2023-03-15T08:04:51.087Z,101822.94
2023-03-15T08:07:17.742Z,101825.53
2023-03-15T08:09:44.506Z,101823.75
2023-03-15T08:12:11.357Z,101828.06
2023-03-15T08:14:37.936Z,101840.97
2023-03-15T08:17:04.632Z,101841.31
2023-03-15T08:19:31.145Z,101842.78
2023-03-15T08:21:57.681Z,101837.84
2023-03-15T08:24:24.293Z,101832.47
2023-03-15T08:26:51.353Z,101842.56
2023-03-15T08:29:18.050Z,101833.13
2023-03-15T08:31:44.665Z,101835.78
2023-03-15T08:34:12.146Z,101837.59
2023-03-15T08:36:38.772Z,101838.97
2023-03-15T08:39:06.094Z,101830.34
2023-03-15T08:41:32.816Z,101839.25
2023-03-15T08:43:59.489Z,101831.97
2023-03-15T08:46:27.160Z,101838.38
2023-03-15T08:48:53.772Z,101842.00
2023-03-15T08:51:21.718Z,101843.72
2023-03-15T08:53:48.556Z,101842.88
2023-03-15T08:56:15.228Z,101846.44
2023-03-15T08:58:41.915Z,101843.56
2023-03-15T09:01:11.790Z,101840.91
2023-03-15T09:03:38.577Z,101844.06
2023-03-15T09:06:05.997Z,101848.84
2023-03-15T09:08:33.405Z,101852.50
2023-03-15T09:11:01.466Z,101846.34
2023-03-15T09:13:28.307Z,101841.78
2023-03-15T09:15:56.107Z,101843.41
2023-03-15T09:18:23.106Z,101840.16
2023-03-15T09:20:49.689Z,101839.72
2023-03-15T09:23:16.224Z,101838.25
2023-03-15T09:25:42.743Z,101827.38
2023-03-15T09:28:11.466Z,101829.34
2023-03-15T09:30:39.525Z,101838.94
2023-03-15T09:33:06.520Z,101835.09
2023-03-15T09:35:33.298Z,101830.44
2023-03-15T09:38:00.649Z,101830.16
2023-03-15T09:40:49.282Z,101813.84
2023-03-15T09:43:49.667Z,101820.66
2023-03-15T09:46:58.744Z,101820.50
2023-03-15T09:49:45.996Z,101822.06
2023-03-15T09:52:33.881Z,101826.59
2023-03-15T09:55:17.424Z,101828.84
2023-03-15T09:57:50.549Z,101837.31
2023-03-15T10:00:37.770Z,101832.91
2023-03-15T10:03:07.279Z,101839.53
2023-03-15T10:05:39.207Z,101840.94
2023-03-15T10:08:13.360Z,101842.31
2023-03-15T10:10:50.213Z,101840.09
2023-03-15T10:13:24.852Z,101833.97
2023-03-15T10:15:58.097Z,101838.31
2023-03-15T10:18:45.502Z,101841.53
2023-03-15T10:21:12.992Z,101846.72
2023-03-15T10:23:42.525Z,101849.03
2023-03-15T10:26:13.318Z,101862.56
2023-03-15T10:28:40.836Z,101861.41
2023-03-15T10:31:36.781Z,101863.81
2023-03-15T10:34:09.319Z,101874.34
2023-03-15T10:36:35.961Z,101871.13
2023-03-15T10:39:04.064Z,101873.72
2023-03-15T10:41:38.878Z,101878.03
2023-03-15T10:44:08.236Z,101878.00
2023-03-15T10:46:35.647Z,101885.22
2023-03-15T10:49:12.881Z,101890.19
2023-03-15T10:51:44.751Z,101900.16
2023-03-15T10:54:22.848Z,101904.56
2023-03-15T10:57:03.527Z,101904.91
2023-03-15T10:59:32.996Z,101901.47
2023-03-15T11:02:11.764Z,101913.00
2023-03-15T11:05:01.035Z,101912.97
2023-03-15T11:07:28.186Z,101918.34
2023-03-15T11:09:59.966Z,101913.16
2023-03-15T11:12:27.788Z,101923.53
2023-03-15T11:15:02.496Z,101918.09
2023-03-15T11:17:32.890Z,101922.38
2023-03-15T11:20:16.053Z,101915.53
2023-03-15T11:22:43.179Z,101919.78
2023-03-15T11:25:14.646Z,101920.56
2023-03-15T11:27:43.399Z,101910.31
2023-03-15T11:30:14.717Z,101918.09
2023-03-15T11:32:42.139Z,101920.72
2023-03-15T11:35:14.246Z,101912.56
2023-03-15T11:38:15.603Z,101913.56
2023-03-15T11:40:49.085Z,101909.25
2023-03-15T11:43:23.205Z,101906.72
2023-03-15T11:46:27.607Z,101908.56
2023-03-15T11:49:04.773Z,101910.44
2023-03-15T11:51:36.456Z,101909.94
2023-03-15T11:54:18.592Z,101900.94
2023-03-15T11:56:48.491Z,101910.59
2023-03-15T11:59:18.393Z,101907.25
2023-03-15T12:01:57.844Z,101904.22
2023-03-15T12:04:24.425Z,101915.22
2023-03-15T12:06:55.277Z,101912.78
2023-03-15T12:09:36.264Z,101913.16
2023-03-15T12:12:04.751Z,101911.13
2023-03-15T12:14:36.637Z,101923.81
2023-03-15T12:17:26.961Z,101921.84
2023-03-15T12:19:59.937Z,101927.50
2023-03-15T12:22:31.200Z,101923.72
2023-03-15T12:24:59.409Z,101919.66
2023-03-15T12:27:28.452Z,101923.75
2023-03-15T12:30:00.382Z,101912.81
2023-03-15T12:32:28.076Z,101914.28
2023-03-15T12:34:56.654Z,101902.03
2023-03-15T12:37:44.826Z,101911.53
2023-03-15T12:40:20.625Z,101902.38
2023-03-15T12:42:47.156Z,101902.19
2023-03-15T12:45:17.178Z,101915.22
2023-03-15T12:48:06.593Z,101895.22
2023-03-15T12:50:36.306Z,101894.34
2023-03-15T12:53:05.583Z,101905.34
2023-03-15T12:55:33.366Z,101890.78
2023-03-15T12:58:00.822Z,101885.66
2023-03-15T13:00:30.665Z,101893.75
2023-03-15T13:03:11.412Z,101891.88
2023-03-15T13:06:03.839Z,101883.59
2023-03-15T13:08:41.575Z,101885.00
2023-03-15T13:11:29.155Z,101885.19
2023-03-15T13:13:55.532Z,101893.00
2023-03-15T13:16:26.482Z,101880.81
2023-03-15T13:19:24.981Z,101887.69
2023-03-15T13:22:14.775Z,101885.22
2023-03-15T13:25:08.345Z,101895.44
2023-03-15T13:27:53.302Z,101906.44
2023-03-15T13:30:32.659Z,101908.44
2023-03-15T13:33:24.721Z,101906.94
2023-03-15T13:35:56.122Z,101902.13
2023-03-15T13:38:45.500Z,101909.69
2023-03-15T13:41:26.645Z,101920.66
2023-03-15T13:43:55.488Z,101921.63
2023-03-15T13:46:23.999Z,101896.16
2023-03-15T13:48:52.232Z,101909.75
2023-03-15T13:51:28.159Z,101915.13
2023-03-15T13:53:57.432Z,101902.38
2023-03-15T13:56:47.032Z,101914.28
2023-03-15T13:59:16.006Z,101903.59
2023-03-15T14:01:43.048Z,101902.59
2023-03-15T14:04:14.349Z,101911.94
2023-03-15T14:06:40.903Z,101915.22
2023-03-15T14:09:11.692Z,101914.47
2023-03-15T14:11:40.675Z,101919.53
2023-03-15T14:14:23.321Z,101911.94
2023-03-15T14:17:04.166Z,101913.38
2023-03-15T14:19:34.071Z,101912.59
2023-03-15T14:22:05.416Z,101906.44
2023-03-15T14:24:43.027Z,101899.06
2023-03-15T14:27:16.503Z,101906.50
2023-03-15T14:29:48.830Z,101906.50
2023-03-15T14:32:34.086Z,101905.28
2023-03-15T14:35:08.098Z,101905.78
2023-03-15T14:37:42.791Z,101897.06
2023-03-15T14:40:23.232Z,101895.31
2023-03-15T14:42:50.384Z,101882.53
2023-03-15T14:45:17.969Z,101889.03
2023-03-15T14:47:56.822Z,101889.63
2023-03-15T14:50:30.845Z,101882.34
2023-03-15T14:52:59.332Z,101881.03
2023-03-15T14:55:31.206Z,101874.72
2023-03-15T14:57:57.692Z,101882.09
2023-03-15T15:00:24.824Z,101879.69
2023-03-15T15:02:52.734Z,101886.78
2023-03-15T15:05:31.089Z,101866.94
2023-03-15T15:08:22.437Z,101877.25
2023-03-15T15:10:51.351Z,101865.13
2023-03-15T15:13:23.257Z,101876.91
2023-03-15T15:15:55.726Z,101869.81
2023-03-15T15:18:25.245Z,101862.03
2023-03-15T15:20:55.540Z,101857.06
2023-03-15T15:23:25.953Z,101860.34
2023-03-15T15:25:56.414Z,101858.00
2023-03-15T15:28:33.816Z,101851.47
2023-03-15T15:31:01.085Z,101852.53
2023-03-15T15:33:27.650Z,101847.78
2023-03-15T15:35:56.223Z,101847.31
2023-03-15T15:38:25.445Z,101840.19
2023-03-15T15:40:52.260Z,101829.94
2023-03-15T15:43:19.041Z,101840.97
2023-03-15T15:45:45.610Z,101840.28
2023-03-15T15:48:12.142Z,101832.06
2023-03-15T15:50:38.700Z,101840.53
2023-03-15T15:53:06.449Z,101840.03
2023-03-15T15:55:35.883Z,101837.34
2023-03-15T15:58:03.702Z,101845.06
2023-03-15T16:00:30.286Z,101841.94
2023-03-15T16:02:57.957Z,101844.34
2023-03-15T16:05:26.711Z,101843.81
2023-03-15T16:07:53.940Z,101834.75
2023-03-15T16:10:23.876Z,101844.03
2023-03-15T16:12:52.191Z,101833.88
2023-03-15T16:15:18.817Z,101837.72
2023-03-15T16:17:45.927Z,101834.75
2023-03-15T16:20:14.316Z,101844.69
2023-03-15T16:22:43.512Z,101837.19
2023-03-15T16:25:13.859Z,101830.59
2023-03-15T16:27:40.923Z,101834.88
2023-03-15T16:30:09.422Z,101824.56
2023-03-15T16:32:44.180Z,101826.53
2023-03-15T16:35:15.645Z,101832.84
2023-03-15T16:37:43.255Z,101825.09
2023-03-15T16:40:17.008Z,101825.66
2023-03-15T16:42:43.545Z,101832.03
2023-03-15T16:45:14.075Z,101840.28
2023-03-15T16:47:40.883Z,101832.66
2023-03-15T16:50:07.664Z,101840.41
2023-03-15T16:52:34.369Z,101830.97
2023-03-15T16:55:01.275Z,101832.50
2023-03-15T16:57:27.944Z,101829.88
2023-03-15T16:59:54.462Z,101823.06
2023-03-15T17:02:26.194Z,101830.09
2023-03-15T17:04:53.018Z,101833.59
2023-03-15T17:07:24.597Z,101833.66
2023-03-15T17:09:51.646Z,101837.19
2023-03-15T17:12:28.984Z,101832.03
2023-03-15T17:14:58.740Z,101835.38
2023-03-15T17:17:33.130Z,101837.19
2023-03-15T17:20:00.230Z,101839.78
2023-03-15T17:22:26.763Z,101840.97
2023-03-15T17:24:54.456Z,101844.34
2023-03-15T17:27:26.652Z,101833.97
2023-03-15T17:29:53.332Z,101835.53
2023-03-15T17:32:20.056Z,101839.19
2023-03-15T17:34:47.627Z,101835.63
2023-03-15T17:37:15.355Z,101837.47
2023-03-15T17:39:42.682Z,101847.06
2023-03-15T17:42:12.709Z,101842.78
2023-03-15T17:44:39.517Z,101842.81
2023-03-15T17:47:09.132Z,101841.06
2023-03-15T17:49:36.181Z,101842.06
2023-03-15T17:52:04.363Z,101841.25
2023-03-15T17:54:31.195Z,101845.53
2023-03-15T17:56:59.669Z,101843.88
2023-03-15T17:59:26.621Z,101843.81
2023-03-15T18:01:53.779Z,101844.75
2023-03-15T18:04:20.915Z,101854.31
2023-03-15T18:06:48.092Z,101847.34
2023-03-15T18:09:18.038Z,101845.56
2023-03-15T18:11:46.495Z,101852.63
2023-03-15T18:14:15.106Z,101841.22
2023-03-15T18:16:43.248Z,101836.00
2023-03-15T18:19:10.582Z,101851.84
2023-03-15T18:21:37.926Z,101844.84
2023-03-15T18:24:05.170Z,101845.63
2023-03-15T18:26:31.734Z,101840.38
2023-03-15T18:28:58.526Z,101838.66
2023-03-15T18:31:26.144Z,101840.38
2023-03-15T18:33:53.630Z,101842.06
2023-03-15T18:36:20.643Z,101866.66
2023-03-15T18:38:47.310Z,101839.47
2023-03-15T18:41:20.350Z,101842.03
2023-03-15T18:43:51.540Z,101840.31
2023-03-15T18:46:27.010Z,101847.41
2023-03-15T18:48:54.071Z,101848.31
2023-03-15T18:51:23.188Z,101847.31
2023-03-15T18:53:49.943Z,101843.03
2023-03-15T18:56:22.241Z,101836.97
2023-03-15T18:58:49.859Z,101846.56
2023-03-15T19:01:18.012Z,101837.94
2023-03-15T19:03:45.038Z,101829.06
2023-03-15T19:06:13.406Z,101832.53
2023-03-15T19:08:40.565Z,101827.19
2023-03-15T19:11:08.505Z,101824.63
2023-03-15T19:13:35.361Z,101828.88
2023-03-15T19:16:02.063Z,101821.22
2023-03-15T19:18:28.661Z,101834.22
2023-03-15T19:20:55.223Z,101821.97
2023-03-15T19:23:21.803Z,101817.66
2023-03-15T19:25:48.592Z,101821.28
2023-03-15T19:28:15.276Z,101808.13
2023-03-15T19:30:42.389Z,101818.69
2023-03-15T19:33:09.206Z,101812.53
2023-03-15T19:35:36.204Z,101816.94
2023-03-15T19:38:02.921Z,101818.72
2023-03-15T19:40:29.753Z,101820.47
2023-03-15T19:42:56.440Z,101813.41
2023-03-15T19:45:23.429Z,101809.03
2023-03-15T19:47:50.267Z,101807.38
2023-03-15T19:50:16.985Z,101809.88
2023-03-15T19:52:46.324Z,101800.34
2023-03-15T19:55:18.341Z,101800.34
2023-03-15T19:57:45.036Z,101815.25
2023-03-15T20:00:14.313Z,101812.72
2023-03-15T20:02:41.654Z,101811.00
2023-03-15T20:05:09.773Z,101814.53
2023-03-15T20:07:37.288Z,101811.06
2023-03-15T20:10:05.336Z,101804.88
2023-03-15T20:12:32.647Z,101804.97
2023-03-15T20:14:59.250Z,101803.16
2023-03-15T20:17:27.467Z,101807.50
2023-03-15T20:19:54.399Z,101804.06
2023-03-15T20:22:21.130Z,101810.16
2023-03-15T20:24:48.001Z,101807.63
2023-03-15T20:27:14.535Z,101797.97
2023-03-15T20:29:41.025Z,101804.09
2023-03-15T20:32:07.602Z,101798.91
2023-03-15T20:34:34.192Z,101807.72
2023-03-15T20:37:01.899Z,101802.53
2023-03-15T20:39:28.653Z,101806.09
2023-03-15T20:41:55.184Z,101802.69
2023-03-15T20:44:21.725Z,101799.19
2023-03-15T20:46:48.404Z,101792.19
2023-03-15T20:49:15.537Z,101797.47
2023-03-15T20:51:42.059Z,101798.31
2023-03-15T20:54:08.648Z,101794.72
2023-03-15T20:56:38.350Z,101800.91
2023-03-15T20:59:08.092Z,101792.19
2023-03-15T21:01:35.200Z,101782.47
2023-03-15T21:04:02.218Z,101794.81
2023-03-15T21:06:29.354Z,101785.19
2023-03-15T21:08:56.309Z,101780.81
2023-03-15T21:11:23.408Z,101787.78
2023-03-15T21:13:50.350Z,101783.50
2023-03-15T21:16:17.389Z,101779.16
2023-03-15T21:18:45.220Z,101780.91
2023-03-15T21:21:12.381Z,101777.44
2023-03-15T21:23:39.501Z,101782.69
2023-03-15T21:26:09.762Z,101784.44
2023-03-15T21:28:37.676Z,101752.88
2023-03-15T21:31:05.848Z,101767.97
2023-03-15T21:33:33.310Z,101767.97
2023-03-15T21:36:00.670Z,101760.97
2023-03-15T21:38:29.121Z,101772.44
2023-03-15T21:40:59.670Z,101773.25
2023-03-15T21:43:26.688Z,101759.31
2023-03-15T21:45:53.741Z,101764.72
2023-03-15T21:48:21.098Z,101752.44
2023-03-15T21:50:49.519Z,101753.44
2023-03-15T21:53:16.073Z,101746.38
2023-03-15T21:55:46.126Z,101754.31
2023-03-15T21:58:12.660Z,101749.03
2023-03-15T22:00:39.214Z,101750.88
2023-03-15T22:03:06.022Z,101754.41
2023-03-15T22:05:35.609Z,101739.53
2023-03-15T22:08:02.445Z,101754.53
2023-03-15T22:10:28.975Z,101744.88
2023-03-15T22:12:55.495Z,101738.72
2023-03-15T22:15:22.148Z,101743.06
2023-03-15T22:17:48.687Z,101754.53
2023-03-15T22:20:16.692Z,101753.56
2023-03-15T22:22:47.309Z,101745.69
2023-03-15T22:25:14.290Z,101749.22
2023-03-15T22:27:41.902Z,101750.06
2023-03-15T22:30:09.912Z,101752.69
2023-03-15T22:32:36.481Z,101754.56
2023-03-15T22:35:04.131Z,101745.00
2023-03-15T22:37:33.971Z,101729.13
2023-03-15T22:40:00.685Z,101735.25
2023-03-15T22:42:27.222Z,101729.16
2023-03-15T22:44:53.755Z,101730.84
2023-03-15T22:47:20.391Z,101736.09
2023-03-15T22:49:46.940Z,101726.47
2023-03-15T22:52:13.648Z,101730.91
2023-03-15T22:54:43.513Z,101730.13
2023-03-15T22:57:11.390Z,101715.13
2023-03-15T22:59:38.910Z,101720.56
2023-03-15T23:02:05.864Z,101714.38
2023-03-15T23:04:32.432Z,101718.72
2023-03-15T23:06:59.008Z,101713.44
2023-03-15T23:09:25.599Z,101721.34
2023-03-15T23:11:52.092Z,101713.47
2023-03-15T23:14:18.806Z,101707.28
2023-03-15T23:16:45.330Z,101709.03
2023-03-15T23:19:13.577Z,101702.03
2023-03-15T23:21:40.099Z,101706.47
2023-03-15T23:24:07.834Z,101705.63
2023-03-15T23:26:37.371Z,101702.97
2023-03-15T23:29:10.640Z,101704.75
2023-03-15T23:31:41.188Z,101696.94
2023-03-15T23:34:08.291Z,101696.84
2023-03-15T23:36:35.368Z,101696.84
2023-03-15T23:39:01.966Z,101688.91
2023-03-15T23:41:29.195Z,101688.88
2023-03-15T23:43:55.738Z,101687.16
2023-03-15T23:46:24.324Z,101693.28
2023-03-15T23:48:52.313Z,101686.25
2023-03-15T23:51:19.388Z,101686.28
2023-03-15T23:53:46.075Z,101669.69
2023-03-15T23:56:12.787Z,101669.69
2023-03-15T23:58:39.566Z,101676.69
